Time;durP1;ratioP1;P1;durP2;ratioP2;P2;SDS_P1;SDS_P2;PMS_P1;PMS_P2;Temp;Humidity;BMP_temperature;BMP_pressure;BME280_temperature;BME280_humidity;BME280_pressure;Samples;Min_cycle;Max_cycle;Signal;HPM_P1;HPM_P2
2021/03/06 00:00:47;;;;;;;16.67;9.02;;;7.20;99.90;;;;;;5046313;28;20037;-51
2021/03/06 00:03:13;;;;;;;16.17;8.57;;;7.30;99.90;;;;;;5044222;28;20452;-52
2021/03/06 00:05:38;;;;;;;18.55;10.52;;;7.40;99.90;;;;;;5043846;28;20025;-52
2021/03/06 00:08:04;;;;;;;18.95;9.60;;;7.00;99.90;;;;;;5045248;28;20021;-51
2021/03/06 00:10:30;;;;;;;17.88;10.07;;;7.10;99.90;;;;;;5045093;28;20041;-53
2021/03/06 00:12:55;;;;;;;14.35;8.70;;;7.00;99.90;;;;;;5045154;28;20021;-52
2021/03/06 00:15:27;;;;;;;15.40;8.93;;;7.10;99.90;;;;;;5045633;28;20041;-52
2021/03/06 00:17:54;;;;;;;16.60;9.20;;;6.90;99.90;;;;;;5045329;28;20029;-51
2021/03/06 00:20:20;;;;;;;15.23;8.98;;;6.90;99.90;;;;;;5044546;28;20036;-52
2021/03/06 00:22:47;;;;;;;14.52;8.18;;;6.90;99.90;;;;;;5045256;28;20021;-51
2021/03/06 00:25:15;;;;;;;13.60;8.23;;;7.10;99.90;;;;;;5045263;28;20562;-53
2021/03/06 00:27:42;;;;;;;15.73;8.52;;;7.00;99.90;;;;;;5045225;28;20522;-52
2021/03/06 00:30:13;;;;;;;14.90;8.70;;;7.10;99.90;;;;;;5045287;28;20025;-52
2021/03/06 00:32:40;;;;;;;15.88;8.77;;;6.90;99.90;;;;;;5044713;28;20386;-52
2021/03/06 00:35:07;;;;;;;16.83;8.32;;;6.80;99.90;;;;;;5044854;28;20517;-52
2021/03/06 00:37:34;;;;;;;13.27;8.40;;;6.90;99.90;;;;;;5044733;28;20021;-52
2021/03/06 00:40:01;;;;;;;12.98;7.35;;;7.00;99.90;;;;;;5045140;28;20025;-51
2021/03/06 00:42:26;;;;;;;15.40;8.15;;;7.10;99.90;;;;;;5044611;28;20025;-52
2021/03/06 00:44:52;;;;;;;15.45;9.07;;;7.00;99.90;;;;;;5044382;28;20025;-52
2021/03/06 00:47:18;;;;;;;18.30;9.70;;;7.00;99.90;;;;;;5044081;28;20487;-52
2021/03/06 00:49:44;;;;;;;14.82;8.63;;;6.70;99.90;;;;;;5044857;28;20037;-52
2021/03/06 00:52:12;;;;;;;15.48;8.85;;;6.90;99.90;;;;;;5044554;28;20101;-52
2021/03/06 00:54:38;;;;;;;20.95;10.40;;;6.80;99.90;;;;;;5044505;28;20029;-51
2021/03/06 00:57:04;;;;;;;21.25;11.20;;;6.80;99.90;;;;;;5044538;28;20607;-53
2021/03/06 00:59:31;;;;;;;23.23;11.88;;;6.80;99.90;;;;;;5043379;28;20025;-52
2021/03/06 01:01:56;;;;;;;30.85;13.88;;;6.80;99.90;;;;;;5044730;28;20112;-50
2021/03/06 01:04:23;;;;;;;25.60;12.27;;;6.70;99.90;;;;;;5044243;28;20116;-52
2021/03/06 01:06:50;;;;;;;30.88;13.60;;;6.80;99.90;;;;;;5045357;28;20017;-52
2021/03/06 01:09:15;;;;;;;34.35;14.20;;;6.70;99.90;;;;;;5044286;28;20376;-51
2021/03/06 01:11:41;;;;;;;37.17;16.50;;;6.60;99.90;;;;;;5044736;28;20041;-52
2021/03/06 01:14:07;;;;;;;37.90;16.65;;;6.60;99.90;;;;;;5045073;28;20029;-51
2021/03/06 01:16:34;;;;;;;38.10;17.80;;;6.70;99.90;;;;;;5044100;28;20083;-52
2021/03/06 01:19:00;;;;;;;33.53;14.85;;;6.60;99.90;;;;;;5044250;28;20217;-52
2021/03/06 01:21:25;;;;;;;27.10;12.88;;;6.80;99.90;;;;;;5043982;28;20060;-51
2021/03/06 01:23:52;;;;;;;23.05;12.30;;;6.80;99.90;;;;;;5045501;28;20438;-54
2021/03/06 01:26:18;;;;;;;25.63;12.10;;;6.60;99.90;;;;;;5044949;28;20025;-51
2021/03/06 01:28:43;;;;;;;37.60;16.08;;;6.60;99.90;;;;;;5042825;28;20017;-50
2021/03/06 01:31:09;;;;;;;37.17;16.42;;;6.80;99.90;;;;;;5044754;28;20083;-52
2021/03/06 01:33:34;;;;;;;33.28;15.05;;;6.80;99.90;;;;;;5043070;28;20064;-52
2021/03/06 01:36:00;;;;;;;33.63;15.27;;;6.70;99.90;;;;;;5044319;28;20036;-52
2021/03/06 01:38:26;;;;;;;36.03;15.63;;;6.60;99.90;;;;;;5043704;28;20110;-52
2021/03/06 01:40:51;;;;;;;37.38;16.73;;;6.70;99.90;;;;;;5044865;28;20037;-52
2021/03/06 01:43:17;;;;;;;39.67;18.35;;;6.70;99.90;;;;;;5044002;28;20028;-50
2021/03/06 01:45:43;;;;;;;38.35;17.23;;;6.50;99.90;;;;;;5043833;28;20029;-52
2021/03/06 01:48:09;;;;;;;40.90;17.05;;;6.50;99.90;;;;;;5043994;28;20040;-52
2021/03/06 01:50:41;;;;;;;30.52;13.60;;;6.50;99.90;;;;;;5044268;28;20507;-53
2021/03/06 01:53:11;;;;;;;33.63;15.13;;;6.50;99.90;;;;;;5043653;28;20405;-52
2021/03/06 01:55:41;;;;;;;25.17;12.32;;;6.40;99.90;;;;;;5043815;28;20388;-52
2021/03/06 01:58:09;;;;;;;22.48;12.13;;;6.40;99.90;;;;;;5044006;28;20029;-52
2021/03/06 02:00:35;;;;;;;22.70;12.25;;;6.40;99.90;;;;;;5044861;28;20126;-52
2021/03/06 02:03:02;;;;;;;17.25;9.40;;;6.20;99.90;;;;;;5047410;28;20067;-52
2021/03/06 02:05:28;;;;;;;20.50;10.73;;;6.40;99.90;;;;;;5046416;28;20025;-51
2021/03/06 02:07:54;;;;;;;21.38;11.10;;;6.30;99.90;;;;;;5047732;28;20029;-52
2021/03/06 02:10:25;;;;;;;19.02;10.30;;;6.30;99.90;;;;;;5048043;28;20048;-51
2021/03/06 02:12:54;;;;;;;17.02;9.43;;;6.40;99.90;;;;;;5079290;28;20079;-51
2021/03/06 02:15:43;;;;;;;23.05;11.25;;;6.50;99.90;;;;;;5048136;28;20018;-52
2021/03/06 02:18:18;;;;;;;22.83;12.02;;;6.50;99.90;;;;;;5047360;28;20049;-53
2021/03/06 02:20:43;;;;;;;18.55;10.18;;;6.30;99.90;;;;;;5047680;28;20465;-52
2021/03/06 02:23:30;;;;;;;21.95;11.27;;;6.30;99.90;;;;;;5047926;28;20104;-52
2021/03/06 02:26:17;;;;;;;19.80;10.75;;;6.30;99.90;;;;;;5047593;28;20495;-52
2021/03/06 02:29:01;;;;;;;17.80;10.20;;;6.30;99.90;;;;;;5047580;28;20021;-53
2021/03/06 02:31:30;;;;;;;18.63;10.48;;;6.40;99.90;;;;;;5046981;28;20071;-53
2021/03/06 02:34:10;;;;;;;19.23;10.52;;;6.30;99.90;;;;;;5047340;28;20025;-52
2021/03/06 02:36:41;;;;;;;17.52;9.68;;;6.30;99.90;;;;;;5047134;28;20418;-52
2021/03/06 02:39:12;;;;;;;17.70;9.70;;;6.40;99.90;;;;;;5047219;28;20028;-53
2021/03/06 02:41:39;;;;;;;16.92;9.63;;;6.40;99.90;;;;;;5046883;28;20029;-52
2021/03/06 02:44:06;;;;;;;14.95;8.88;;;6.40;99.90;;;;;;5046529;28;20025;-51
2021/03/06 02:46:33;;;;;;;15.80;8.48;;;6.50;99.90;;;;;;5046023;28;20501;-52
2021/03/06 02:49:00;;;;;;;17.15;9.00;;;6.60;99.90;;;;;;5046822;28;20025;-51
2021/03/06 02:51:34;;;;;;;22.05;11.63;;;6.60;99.90;;;;;;5046784;28;20455;-52
2021/03/06 02:54:00;;;;;;;;;;;6.60;99.90;;;;;;5046910;28;20021;-52
2021/03/06 02:56:25;;;;;;;17.00;9.40;;;6.60;99.90;;;;;;5046427;28;19966;-52
2021/03/06 02:59:11;;;;;;;15.10;9.05;;;6.60;99.90;;;;;;5047583;28;20044;-52
2021/03/06 03:02:08;;;;;;;15.90;9.77;;;6.60;99.90;;;;;;5046414;28;20078;-50
2021/03/06 03:05:04;;;;;;;15.77;9.30;;;6.60;99.90;;;;;;5046176;28;20033;-50
2021/03/06 03:07:48;;;;;;;13.82;7.72;;;6.70;99.90;;;;;;5046601;28;20051;-48
2021/03/06 03:10:15;;;;;;;13.55;7.65;;;6.70;99.90;;;;;;5046631;28;20087;-51
2021/03/06 03:12:57;;;;;;;12.35;6.90;;;6.70;99.90;;;;;;5046753;28;20021;-51
2021/03/06 03:15:30;;;;;;;11.23;6.97;;;6.70;99.90;;;;;;5046766;28;20116;-53
2021/03/06 03:17:57;;;;;;;9.68;6.68;;;6.60;99.90;;;;;;5046714;28;20032;-52
2021/03/06 03:20:43;;;;;;;13.30;8.13;;;6.60;99.90;;;;;;5046746;28;20037;-51
2021/03/06 03:23:11;;;;;;;14.05;7.63;;;6.40;99.90;;;;;;5046471;28;20028;-51
2021/03/06 03:25:40;;;;;;;14.65;7.50;;;6.50;99.90;;;;;;5045935;28;20048;-52
2021/03/06 03:28:09;;;;;;;11.98;7.00;;;6.50;99.90;;;;;;5046239;28;20021;-52
2021/03/06 03:30:36;;;;;;;11.57;6.25;;;6.50;99.90;;;;;;5045916;28;20338;-53
2021/03/06 03:33:07;;;;;;;11.55;6.95;;;6.50;99.90;;;;;;5046402;28;20020;-52
2021/03/06 03:35:33;;;;;;;13.10;7.63;;;6.50;99.90;;;;;;5046473;28;20029;-52
2021/03/06 03:38:01;;;;;;;11.52;7.00;;;6.40;99.90;;;;;;5046022;28;20021;-53
2021/03/06 03:40:27;;;;;;;13.18;7.18;;;6.40;99.90;;;;;;5045769;28;20044;-53
2021/03/06 03:42:53;;;;;;;13.23;7.18;;;6.30;99.90;;;;;;5046772;28;20064;-52
2021/03/06 03:45:21;;;;;;;13.15;7.35;;;6.30;99.90;;;;;;5044961;28;20037;-52
2021/03/06 03:47:48;;;;;;;12.15;7.28;;;6.20;99.90;;;;;;5045868;28;20025;-52
2021/03/06 03:50:16;;;;;;;11.82;6.95;;;6.20;99.90;;;;;;5045902;28;20029;-53
2021/03/06 03:52:44;;;;;;;10.82;6.63;;;6.00;99.90;;;;;;5045742;28;20025;-52
2021/03/06 03:55:10;;;;;;;12.13;6.95;;;6.20;99.90;;;;;;5045961;28;20025;-52
2021/03/06 03:57:37;;;;;;;13.05;7.13;;;6.10;99.90;;;;;;5045359;28;20368;-51
2021/03/06 04:00:08;;;;;;;11.05;6.80;;;6.30;99.90;;;;;;5045762;28;20565;-51
2021/03/06 04:02:35;;;;;;;10.57;6.32;;;6.20;99.90;;;;;;5045320;28;20519;-51
2021/03/06 04:05:01;;;;;;;12.27;6.90;;;6.30;99.90;;;;;;5045797;28;20514;-53
2021/03/06 04:07:27;;;;;;;10.93;6.82;;;6.20;99.90;;;;;;5045467;28;20021;-51
2021/03/06 04:09:53;;;;;;;11.73;6.63;;;6.30;99.90;;;;;;5046169;28;20493;-53
2021/03/06 04:12:19;;;;;;;13.18;7.53;;;6.30;99.90;;;;;;5046021;28;20186;-52
2021/03/06 04:14:44;;;;;;;10.60;6.25;;;6.40;99.90;;;;;;5045413;28;20048;-52
2021/03/06 04:17:13;;;;;;;12.23;7.10;;;6.40;99.90;;;;;;5045427;28;20100;-52
2021/03/06 04:19:39;;;;;;;11.25;7.05;;;6.40;99.90;;;;;;5044932;28;20042;-52
2021/03/06 04:22:04;;;;;;;12.07;7.20;;;6.40;99.90;;;;;;5044851;28;20029;-49
2021/03/06 04:24:31;;;;;;;10.30;6.68;;;6.40;99.90;;;;;;5045061;28;20431;-53
2021/03/06 04:26:56;;;;;;;11.23;7.25;;;6.30;99.90;;;;;;5045721;28;20398;-52
2021/03/06 04:29:23;;;;;;;10.30;6.35;;;6.40;99.90;;;;;;5045122;28;20029;-51
2021/03/06 04:31:48;;;;;;;11.98;7.15;;;6.30;99.90;;;;;;5045269;28;20057;-53
2021/03/06 04:34:14;;;;;;;11.25;6.43;;;6.40;99.90;;;;;;5045173;28;20529;-53
2021/03/06 04:36:40;;;;;;;11.88;6.97;;;6.50;99.90;;;;;;5045321;28;20029;-52
2021/03/06 04:39:06;;;;;;;11.85;7.38;;;6.30;99.90;;;;;;5044856;28;20060;-53
2021/03/06 04:41:32;;;;;;;10.05;6.40;;;6.40;99.90;;;;;;5044721;28;20025;-52
2021/03/06 04:43:58;;;;;;;10.25;6.50;;;6.40;99.90;;;;;;5045079;28;20025;-52
2021/03/06 04:46:24;;;;;;;9.48;6.35;;;6.40;99.90;;;;;;5044487;28;20111;-50
2021/03/06 04:48:49;;;;;;;10.82;6.43;;;6.30;99.90;;;;;;5045500;28;20103;-52
2021/03/06 04:51:15;;;;;;;10.75;6.72;;;6.30;99.90;;;;;;5044565;28;20087;-53
2021/03/06 04:53:41;;;;;;;11.05;6.55;;;6.40;99.90;;;;;;5044292;28;20245;-50
2021/03/06 04:56:07;;;;;;;10.38;6.18;;;6.30;99.90;;;;;;5044775;28;20407;-49
2021/03/06 04:58:32;;;;;;;10.75;6.40;;;6.30;99.90;;;;;;5044538;28;20048;-53
2021/03/06 05:00:58;;;;;;;10.13;6.40;;;6.30;99.90;;;;;;5044674;28;20067;-51
2021/03/06 05:03:23;;;;;;;11.10;7.30;;;6.30;99.90;;;;;;5045187;28;20367;-53
2021/03/06 05:05:50;;;;;;;10.00;6.25;;;6.20;99.90;;;;;;5045354;28;20108;-52
2021/03/06 05:08:16;;;;;;;10.25;6.45;;;6.20;99.90;;;;;;5044495;28;20021;-51
2021/03/06 05:10:41;;;;;;;14.60;7.72;;;6.10;99.90;;;;;;5044648;28;20048;-52
2021/03/06 05:13:07;;;;;;;15.50;8.48;;;6.00;99.90;;;;;;5044668;28;20025;-52
2021/03/06 05:15:32;;;;;;;15.35;8.70;;;5.90;99.90;;;;;;5044266;28;20111;-52
2021/03/06 05:17:59;;;;;;;14.40;8.60;;;6.10;99.90;;;;;;5044821;28;20032;-52
2021/03/06 05:20:24;;;;;;;12.65;7.93;;;6.30;99.90;;;;;;5044134;28;20029;-53
2021/03/06 05:22:50;;;;;;;15.63;8.43;;;6.30;99.90;;;;;;5045159;28;20028;-53
2021/03/06 05:25:16;;;;;;;16.00;9.02;;;6.10;99.90;;;;;;5044669;28;20293;-52
2021/03/06 05:27:42;;;;;;;18.25;10.65;;;5.90;99.90;;;;;;5044473;28;20431;-50
2021/03/06 05:30:09;;;;;;;15.80;9.05;;;5.80;99.90;;;;;;5044596;28;20392;-53
2021/03/06 05:32:35;;;;;;;13.02;8.05;;;5.90;99.90;;;;;;5044412;28;20041;-52
2021/03/06 05:35:03;;;;;;;12.85;7.93;;;6.10;99.90;;;;;;5045962;28;20028;-53
2021/03/06 05:37:29;;;;;;;12.95;7.90;;;6.00;99.90;;;;;;5048082;28;20036;-50
2021/03/06 05:39:56;;;;;;;14.25;8.63;;;5.90;99.90;;;;;;5048310;28;20025;-52
2021/03/06 05:42:23;;;;;;;13.95;8.30;;;5.90;99.90;;;;;;5048538;28;20060;-52
2021/03/06 05:44:51;;;;;;;13.30;8.15;;;5.90;99.90;;;;;;5048907;28;20021;-52
2021/03/06 05:47:18;;;;;;;12.52;7.43;;;5.80;99.90;;;;;;5047607;28;20436;-51
2021/03/06 05:49:44;;;;;;;13.68;8.55;;;5.80;99.90;;;;;;5048036;28;20162;-51
2021/03/06 05:52:13;;;;;;;11.65;7.47;;;5.80;99.90;;;;;;5048010;28;20524;-51
2021/03/06 05:54:40;;;;;;;14.35;7.82;;;5.80;99.90;;;;;;5047902;28;20033;-49
2021/03/06 05:57:08;;;;;;;12.48;7.65;;;5.80;99.90;;;;;;5048175;28;20025;-49
2021/03/06 05:59:35;;;;;;;13.48;8.30;;;5.70;99.90;;;;;;5047751;28;20086;-52
2021/03/06 06:02:01;;;;;;;13.80;8.43;;;5.80;99.90;;;;;;5047792;28;20099;-53
2021/03/06 06:04:28;;;;;;;14.55;8.55;;;5.90;99.90;;;;;;5047905;28;20025;-52
2021/03/06 06:06:53;;;;;;;13.07;8.25;;;5.90;99.90;;;;;;5048632;28;20402;-50
2021/03/06 06:09:19;;;;;;;14.40;8.50;;;5.90;99.90;;;;;;5048096;28;20032;-50
2021/03/06 06:11:45;;;;;;;13.77;8.27;;;5.90;99.90;;;;;;5047233;28;20029;-51
2021/03/06 06:14:11;;;;;;;14.70;8.55;;;5.90;99.90;;;;;;5048888;28;20021;-51
2021/03/06 06:16:36;;;;;;;13.35;8.25;;;5.90;99.90;;;;;;5048771;28;20065;-50
2021/03/06 06:19:05;;;;;;;12.18;7.80;;;5.90;99.90;;;;;;5049072;28;20028;-53
2021/03/06 06:21:45;;;;;;;13.95;8.15;;;5.90;99.90;;;;;;5048861;28;20025;-52
2021/03/06 06:24:19;;;;;;;15.68;8.23;;;5.70;99.90;;;;;;5048810;28;20027;-53
2021/03/06 06:26:54;;;;;;;;;;;5.70;99.90;;;;;;5049545;28;20087;-52
2021/03/06 06:29:36;;;;;;;14.35;8.35;;;5.80;99.90;;;;;;5049375;28;19927;-51
2021/03/06 06:32:02;;;;;;;13.32;8.10;;;5.70;99.90;;;;;;5049030;28;20017;-53
2021/03/06 06:34:28;;;;;;;13.10;7.90;;;5.70;99.90;;;;;;5048739;28;20029;-52
2021/03/06 06:36:53;;;;;;;14.50;8.68;;;5.70;99.90;;;;;;5049446;28;20040;-53
2021/03/06 06:39:29;;;;;;;17.20;9.75;;;5.80;99.90;;;;;;5048683;28;20021;-51
2021/03/06 06:41:57;;;;;;;14.48;8.77;;;5.90;99.90;;;;;;5048785;28;20103;-51
2021/03/06 06:44:24;;;;;;;15.60;8.75;;;5.90;99.90;;;;;;5048969;28;20021;-52
2021/03/06 06:46:52;;;;;;;16.27;9.80;;;6.00;99.90;;;;;;5048306;28;20040;-49
2021/03/06 06:49:19;;;;;;;14.80;8.85;;;6.00;99.90;;;;;;5048229;28;20036;-49
2021/03/06 06:52:00;;;;;;;15.75;9.13;;;6.10;99.90;;;;;;5048426;28;20021;-52
2021/03/06 06:54:27;;;;;;;16.27;10.02;;;6.10;99.90;;;;;;5026282;28;20030;-52
2021/03/06 06:57:09;;;;;;;15.40;9.15;;;6.10;99.90;;;;;;5037222;28;20120;-50
2021/03/06 06:59:40;;;;;;;16.42;9.95;;;6.10;99.90;;;;;;5046592;28;20170;-50
2021/03/06 07:02:08;;;;;;;16.83;9.35;;;6.10;99.90;;;;;;5046715;28;20033;-51
2021/03/06 07:04:57;;;;;;;17.35;9.52;;;6.20;99.90;;;;;;5043291;28;20017;-52
2021/03/06 07:07:25;;;;;;;14.90;9.07;;;6.20;99.90;;;;;;5041527;28;20510;-54
2021/03/06 07:10:04;;;;;;;16.95;9.60;;;6.20;99.90;;;;;;5048368;28;20033;-53
2021/03/06 07:12:42;;;;;;;14.45;9.48;;;6.20;99.90;;;;;;5047594;28;20021;-53
2021/03/06 07:15:18;;;;;;;17.00;10.77;;;6.30;99.90;;;;;;5048108;28;20414;-53
2021/03/06 07:17:45;;;;;;;15.25;9.68;;;6.30;99.90;;;;;;5046404;28;20029;-54
2021/03/06 07:20:29;;;;;;;16.13;9.02;;;6.30;99.90;;;;;;5048329;28;20032;-54
2021/03/06 07:22:57;;;;;;;15.38;9.65;;;6.40;99.90;;;;;;5048058;28;20024;-54
2021/03/06 07:25:25;;;;;;;15.52;9.32;;;6.40;99.90;;;;;;5048597;28;20025;-54
2021/03/06 07:27:52;;;;;;;16.33;9.65;;;6.30;99.90;;;;;;5046952;28;20083;-54
2021/03/06 07:30:18;;;;;;;13.98;8.95;;;6.30;99.90;;;;;;5046551;28;20558;-53
2021/03/06 07:32:46;;;;;;;16.00;8.90;;;6.20;99.90;;;;;;5045422;28;20133;-54
2021/03/06 07:35:13;;;;;;;14.98;9.43;;;6.20;99.90;;;;;;5039729;28;20036;-54
2021/03/06 07:37:40;;;;;;;13.95;8.88;;;6.30;99.90;;;;;;5027405;28;20076;-55
2021/03/06 07:40:12;;;;;;;16.27;9.68;;;6.30;99.90;;;;;;5044332;28;20033;-61
2021/03/06 07:42:57;;;;;;;14.23;9.48;;;6.30;99.90;;;;;;5044471;28;20087;-62
2021/03/06 07:45:25;;;;;;;17.27;10.18;;;6.40;99.90;;;;;;5044494;28;20031;-62
2021/03/06 07:47:55;;;;;;;16.30;9.48;;;6.40;99.90;;;;;;5046635;28;20021;-62
2021/03/06 07:50:31;;;;;;;14.35;8.80;;;6.30;99.90;;;;;;5047589;28;20017;-62
2021/03/06 07:52:58;;;;;;;15.18;9.82;;;6.30;99.90;;;;;;5046061;28;20108;-63
2021/03/06 07:55:28;;;;;;;17.30;9.57;;;6.20;99.90;;;;;;5043003;28;20029;-62
2021/03/06 07:58:12;;;;;;;14.85;9.07;;;6.30;99.90;;;;;;5045826;28;20036;-62
2021/03/06 08:00:47;;;;;;;17.60;9.98;;;6.40;99.90;;;;;;5046495;28;20479;-62
2021/03/06 08:03:39;;;;;;;15.70;9.35;;;6.40;99.90;;;;;;5045156;28;20059;-62
2021/03/06 08:06:30;;;;;;;15.45;9.52;;;6.40;99.90;;;;;;5044202;28;20087;-62
2021/03/06 08:09:17;;;;;;;13.90;8.95;;;6.30;99.90;;;;;;5046250;28;20409;-62
2021/03/06 08:11:44;;;;;;;16.65;9.77;;;6.40;99.90;;;;;;5045017;28;20044;-62
2021/03/06 08:14:27;;;;;;;14.27;8.85;;;6.50;99.90;;;;;;5045340;28;20059;-62
2021/03/06 08:16:53;;;;;;;16.38;9.00;;;6.50;99.90;;;;;;5045465;28;20479;-62
2021/03/06 08:19:19;;;;;;;15.43;8.23;;;6.50;99.90;;;;;;5045108;28;20024;-62
2021/03/06 08:21:50;;;;;;;14.50;8.90;;;6.50;99.90;;;;;;5045157;28;20036;-62
2021/03/06 08:24:15;;;;;;;15.32;9.38;;;6.60;99.90;;;;;;5045254;28;20029;-62
2021/03/06 08:27:12;;;;;;;15.10;9.75;;;6.60;99.90;;;;;;5045388;28;20021;-62
2021/03/06 08:29:48;;;;;;;14.32;8.82;;;6.70;99.90;;;;;;5040371;28;20053;-62
2021/03/06 08:32:36;;;;;;;13.45;8.55;;;6.80;99.90;;;;;;5045323;28;20407;-62
2021/03/06 08:35:22;;;;;;;16.65;9.50;;;6.90;99.90;;;;;;5045094;28;20036;-62
2021/03/06 08:37:49;;;;;;;14.00;8.50;;;6.80;99.90;;;;;;5044918;28;20024;-62
2021/03/06 08:40:15;;;;;;;14.32;8.82;;;6.80;99.90;;;;;;5046065;28;20033;-63
2021/03/06 08:42:54;;;;;;;16.00;8.70;;;6.80;99.90;;;;;;5044392;28;20051;-62
2021/03/06 08:45:28;;;;;;;16.00;9.32;;;6.90;99.90;;;;;;5045292;28;20033;-61
2021/03/06 08:47:59;;;;;;;17.17;9.90;;;7.00;99.90;;;;;;5046934;28;20522;-62
2021/03/06 08:50:26;;;;;;;16.20;8.93;;;6.80;99.90;;;;;;5042061;28;20039;-62
2021/03/06 08:53:00;;;;;;;18.63;10.95;;;6.80;99.90;;;;;;5042963;28;20566;-62
2021/03/06 08:55:27;;;;;;;;;;;7.00;99.90;;;;;;5048756;28;20063;-62
2021/03/06 08:57:53;;;;;;;21.42;12.32;;;7.10;99.90;;;;;;5041865;28;19915;-62
2021/03/06 09:00:20;;;;;;;18.63;11.02;;;7.10;99.90;;;;;;5044377;28;20111;-61
2021/03/06 09:02:48;;;;;;;21.92;12.10;;;7.20;99.90;;;;;;5045327;28;20078;-61
2021/03/06 09:05:19;;;;;;;22.73;12.35;;;7.20;99.90;;;;;;5045450;28;20057;-62
2021/03/06 09:07:47;;;;;;;20.48;11.10;;;7.30;99.90;;;;;;5032883;28;20503;-62
2021/03/06 09:10:16;;;;;;;17.85;10.07;;;7.30;99.90;;;;;;5041860;28;21061;-61
2021/03/06 09:12:43;;;;;;;18.00;10.35;;;7.30;99.90;;;;;;5045444;28;20028;-62
2021/03/06 09:15:13;;;;;;;17.70;10.40;;;7.30;99.90;;;;;;5043975;28;20553;-62
2021/03/06 09:17:39;;;;;;;17.98;10.85;;;7.30;99.90;;;;;;5044145;28;20121;-62
2021/03/06 09:20:08;;;;;;;18.85;10.82;;;7.40;99.90;;;;;;5044212;28;20029;-61
2021/03/06 09:22:48;;;;;;;15.88;9.30;;;7.20;99.90;;;;;;5043649;28;20061;-62
2021/03/06 09:25:26;;;;;;;21.48;12.25;;;7.10;99.90;;;;;;5035065;28;20034;-62
2021/03/06 09:27:53;;;;;;;17.52;10.90;;;7.20;99.90;;;;;;5038538;28;20112;-62
2021/03/06 09:30:19;;;;;;;15.68;9.52;;;7.30;99.90;;;;;;5043845;28;20404;-62
2021/03/06 09:32:45;;;;;;;16.20;9.13;;;7.40;99.90;;;;;;5045148;28;20021;-62
2021/03/06 09:35:15;;;;;;;15.57;9.27;;;7.10;99.90;;;;;;5045663;28;20071;-61
2021/03/06 09:37:40;;;;;;;14.73;9.18;;;7.20;99.90;;;;;;5045942;28;20407;-61
2021/03/06 09:40:21;;;;;;;11.07;7.22;;;7.10;99.90;;;;;;5044708;28;20037;-61
2021/03/06 09:42:51;;;;;;;13.35;7.93;;;7.50;99.90;;;;;;5044380;28;20035;-62
2021/03/06 09:45:17;;;;;;;14.40;9.00;;;7.50;99.90;;;;;;5043313;28;20024;-62
2021/03/06 09:47:43;;;;;;;16.25;9.80;;;7.70;99.90;;;;;;5041767;28;20027;-62
2021/03/06 09:50:11;;;;;;;13.75;8.88;;;7.50;99.90;;;;;;5040610;28;20491;-61
2021/03/06 09:52:37;;;;;;;15.40;9.13;;;7.60;99.90;;;;;;5041325;28;20479;-62
2021/03/06 09:55:04;;;;;;;14.50;8.63;;;7.80;99.90;;;;;;5044184;28;20029;-62
2021/03/06 09:57:29;;;;;;;13.32;7.88;;;7.90;99.90;;;;;;5043592;28;20033;-62
2021/03/06 09:59:55;;;;;;;12.55;7.93;;;8.10;99.90;;;;;;5042816;28;20032;-62
2021/03/06 10:02:23;;;;;;;12.55;7.85;;;8.00;99.90;;;;;;5043302;28;20025;-62
2021/03/06 10:04:50;;;;;;;14.30;9.35;;;8.00;99.90;;;;;;5044946;28;20033;-62
2021/03/06 10:07:24;;;;;;;15.15;7.90;;;7.90;99.90;;;;;;5041414;28;20055;-62
2021/03/06 10:09:50;;;;;;;11.98;7.75;;;8.10;99.90;;;;;;5043213;28;20585;-60
2021/03/06 10:12:17;;;;;;;13.30;7.65;;;8.20;99.90;;;;;;5040551;28;20059;-62
2021/03/06 10:14:48;;;;;;;11.65;7.30;;;8.40;99.90;;;;;;5043858;28;20082;-62
2021/03/06 10:17:22;;;;;;;12.80;7.45;;;8.50;99.90;;;;;;5044096;28;20646;-62
2021/03/06 10:19:52;;;;;;;13.85;7.80;;;8.40;99.90;;;;;;5044350;28;20025;-62
2021/03/06 10:22:20;;;;;;;10.00;6.15;;;8.40;99.90;;;;;;5046774;28;20040;-61
2021/03/06 10:24:57;;;;;;;11.57;7.15;;;8.50;99.90;;;;;;5048196;28;20653;-61
2021/03/06 10:27:46;;;;;;;14.13;7.78;;;8.40;99.90;;;;;;5048172;28;20441;-61
2021/03/06 10:30:30;;;;;;;11.80;7.20;;;8.60;99.90;;;;;;5048703;28;20017;-61
2021/03/06 10:33:01;;;;;;;14.07;8.20;;;8.40;99.90;;;;;;5048614;28;20043;-61
2021/03/06 10:35:29;;;;;;;13.60;7.25;;;8.10;99.90;;;;;;5048306;28;20037;-61
2021/03/06 10:37:55;;;;;;;11.15;6.65;;;8.50;99.90;;;;;;5048802;28;20037;-61
2021/03/06 10:40:38;;;;;;;10.80;7.20;;;8.60;99.90;;;;;;5048301;28;20039;-61
2021/03/06 10:43:04;;;;;;;13.63;7.75;;;8.40;99.90;;;;;;5047216;28;20116;-62
2021/03/06 10:45:30;;;;;;;17.95;9.98;;;8.60;99.90;;;;;;5048415;28;20108;-61
2021/03/06 10:48:02;;;;;;;15.35;8.77;;;8.60;99.90;;;;;;5048793;28;20025;-61
2021/03/06 10:50:30;;;;;;;15.38;8.93;;;8.60;99.90;;;;;;5048074;28;20023;-61
2021/03/06 10:53:16;;;;;;;59.20;21.27;;;8.70;99.90;;;;;;5048160;28;20087;-61
2021/03/06 10:55:43;;;;;;;49.47;20.25;;;8.60;99.90;;;;;;5048922;28;20083;-62
2021/03/06 10:58:09;;;;;;;36.33;15.43;;;8.50;99.90;;;;;;5048776;28;20043;-61
2021/03/06 11:00:36;;;;;;;31.17;13.93;;;8.70;99.90;;;;;;5047694;28;20482;-61
2021/03/06 11:03:04;;;;;;;26.15;12.45;;;8.60;99.90;;;;;;5048571;28;20036;-61
2021/03/06 11:05:31;;;;;;;22.42;10.88;;;8.80;99.90;;;;;;5047907;28;20093;-61
2021/03/06 11:08:10;;;;;;;19.88;10.65;;;8.90;99.90;;;;;;5048438;28;20024;-61
2021/03/06 11:10:39;;;;;;;17.23;9.00;;;9.20;99.90;;;;;;5047911;28;20037;-61
2021/03/06 11:13:06;;;;;;;16.85;9.63;;;9.40;99.90;;;;;;5048198;28;20102;-61
2021/03/06 11:15:32;;;;;;;13.32;8.10;;;9.00;99.90;;;;;;5047784;28;20601;-61
2021/03/06 11:18:00;;;;;;;13.30;8.57;;;9.30;99.90;;;;;;5048103;28;20060;-61
2021/03/06 11:20:29;;;;;;;15.80;9.90;;;9.30;99.90;;;;;;5047803;28;20100;-61
2021/03/06 11:22:55;;;;;;;20.85;12.80;;;9.10;99.90;;;;;;5047914;28;20033;-61
2021/03/06 11:25:22;;;;;;;15.02;8.88;;;9.10;99.90;;;;;;5078831;28;20471;-61
2021/03/06 11:27:58;;;;;;;11.75;7.82;;;9.70;99.70;;;;;;5047680;28;20025;-61
2021/03/06 11:30:35;;;;;;;12.68;7.95;;;10.00;99.90;;;;;;5046186;28;20237;-61
2021/03/06 11:33:04;;;;;;;12.07;7.38;;;10.00;99.50;;;;;;5034665;28;20027;-61
2021/03/06 11:35:31;;;;;;;11.25;7.85;;;10.20;99.20;;;;;;5047527;28;20049;-61
2021/03/06 11:37:57;;;;;;;15.10;10.32;;;10.30;98.90;;;;;;5047771;28;20091;-61
2021/03/06 11:40:28;;;;;;;13.48;8.93;;;9.90;99.20;;;;;;5046751;28;20021;-61
2021/03/06 11:42:54;;;;;;;11.45;7.70;;;10.00;99.30;;;;;;5047259;28;20068;-61
2021/03/06 11:45:24;;;;;;;9.73;6.55;;;10.40;99.40;;;;;;5047233;28;20024;-62
2021/03/06 11:47:51;;;;;;;9.93;6.53;;;10.60;99.00;;;;;;5047711;28;20033;-61
2021/03/06 11:50:20;;;;;;;8.30;6.18;;;10.60;98.90;;;;;;5047298;28;20049;-61
2021/03/06 11:52:45;;;;;;;11.13;6.63;;;10.70;99.10;;;;;;5047062;28;20025;-61
2021/03/06 11:55:12;;;;;;;10.35;6.72;;;10.70;99.30;;;;;;5048111;28;20462;-61
2021/03/06 11:57:38;;;;;;;11.15;7.38;;;10.80;98.90;;;;;;5046031;28;20120;-61
2021/03/06 12:00:11;;;;;;;12.15;7.25;;;10.20;98.10;;;;;;5045749;28;20032;-59
2021/03/06 12:02:38;;;;;;;10.73;6.97;;;10.40;99.00;;;;;;5045264;28;20056;-59
2021/03/06 12:05:05;;;;;;;10.60;6.85;;;10.60;98.80;;;;;;5046165;28;20116;-59
2021/03/06 12:07:31;;;;;;;10.90;7.18;;;10.70;98.30;;;;;;5046139;28;20024;-59
2021/03/06 12:09:57;;;;;;;9.95;6.35;;;10.30;98.30;;;;;;5044161;28;20064;-59
2021/03/06 12:12:23;;;;;;;7.68;5.72;;;10.40;98.60;;;;;;5045134;28;20033;-59
2021/03/06 12:14:48;;;;;;;8.73;6.03;;;10.50;98.90;;;;;;5044888;28;20099;-61
2021/03/06 12:17:14;;;;;;;10.90;7.07;;;10.50;98.50;;;;;;5046338;28;20043;-61
2021/03/06 12:19:39;;;;;;;11.02;6.88;;;10.30;98.20;;;;;;5046964;28;20025;-60
2021/03/06 12:22:05;;;;;;;11.02;6.20;;;10.40;98.80;;;;;;5044006;28;20059;-60
2021/03/06 12:24:31;;;;;;;10.27;6.68;;;10.50;98.70;;;;;;5044089;28;20025;-60
2021/03/06 12:26:57;;;;;;;10.32;6.65;;;10.70;98.50;;;;;;5045633;28;20116;-60
2021/03/06 12:29:22;;;;;;;11.55;6.20;;;10.70;98.40;;;;;;5045254;28;20280;-60
2021/03/06 12:31:48;;;;;;;12.05;6.70;;;10.60;98.50;;;;;;5045280;28;20040;-60
2021/03/06 12:34:14;;;;;;;10.52;6.82;;;10.60;98.70;;;;;;5046577;28;20042;-60
2021/03/06 12:36:42;;;;;;;9.70;6.68;;;10.40;98.70;;;;;;5044356;28;20033;-60
2021/03/06 12:39:09;;;;;;;10.15;6.25;;;10.50;98.80;;;;;;5044472;28;20528;-60
2021/03/06 12:41:35;;;;;;;9.38;6.38;;;10.30;98.50;;;;;;5045260;28;20932;-60
2021/03/06 12:44:01;;;;;;;9.57;6.47;;;10.40;98.90;;;;;;5044525;28;20025;-60
2021/03/06 12:46:26;;;;;;;10.90;5.82;;;10.30;99.30;;;;;;5045780;28;20029;-60
2021/03/06 12:48:52;;;;;;;8.40;5.57;;;10.40;99.00;;;;;;5046255;28;20025;-60
2021/03/06 12:51:19;;;;;;;9.07;5.95;;;10.60;98.90;;;;;;5044372;28;20392;-60
2021/03/06 12:53:45;;;;;;;9.07;5.85;;;10.60;98.60;;;;;;5045916;28;20032;-60
2021/03/06 12:56:11;;;;;;;7.95;5.18;;;10.50;98.80;;;;;;5046742;28;20514;-61